sensor_id;sensor_type;location;lat;lon;timestamp;P1;durP1;ratioP1;P2;durP2;ratioP2
30681;SDS011;17439;48.092;11.842;2023-02-16T00:00:48;11.30;;;5.88;;
30681;SDS011;17439;48.092;11.842;2023-02-16T00:03:19;10.00;;;5.60;;
30681;SDS011;17439;48.092;11.842;2023-02-16T00:05:47;11.73;;;6.50;;
30681;SDS011;17439;48.092;11.842;2023-02-16T00:08:14;13.30;;;6.18;;
30681;SDS011;17439;48.092;11.842;2023-02-16T00:10:41;11.82;;;5.72;;
30681;SDS011;17439;48.092;11.842;2023-02-16T00:13:18;12.40;;;5.97;;
30681;SDS011;17439;48.092;11.842;2023-02-16T00:15:50;10.25;;;5.90;;
30681;SDS011;17439;48.092;11.842;2023-02-16T00:18:18;11.93;;;6.07;;
30681;SDS011;17439;48.092;11.842;2023-02-16T00:20:48;12.82;;;7.20;;
30681;SDS011;17439;48.092;11.842;2023-02-16T00:23:15;12.82;;;6.07;;
30681;SDS011;17439;48.092;11.842;2023-02-16T00:25:42;13.80;;;6.13;;
30681;SDS011;17439;48.092;11.842;2023-02-16T00:28:12;12.45;;;5.82;;
30681;SDS011;17439;48.092;11.842;2023-02-16T00:30:43;12.18;;;6.22;;
30681;SDS011;17439;48.092;11.842;2023-02-16T00:33:15;8.68;;;4.80;;
30681;SDS011;17439;48.092;11.842;2023-02-16T00:35:44;17.65;;;5.47;;
30681;SDS011;17439;48.092;11.842;2023-02-16T00:38:11;9.57;;;5.05;;
30681;SDS011;17439;48.092;11.842;2023-02-16T00:40:38;11.10;;;5.35;;
30681;SDS011;17439;48.092;11.842;2023-02-16T00:43:06;10.60;;;4.85;;
30681;SDS011;17439;48.092;11.842;2023-02-16T00:45:36;11.05;;;5.40;;
30681;SDS011;17439;48.092;11.842;2023-02-16T00:48:03;12.65;;;5.95;;
30681;SDS011;17439;48.092;11.842;2023-02-16T00:50:31;10.75;;;5.30;;
30681;SDS011;17439;48.092;11.842;2023-02-16T00:52:58;10.82;;;5.63;;
30681;SDS011;17439;48.092;11.842;2023-02-16T00:55:27;8.68;;;4.78;;
30681;SDS011;17439;48.092;11.842;2023-02-16T01:00:50;11.57;;;5.13;;
30681;SDS011;17439;48.092;11.842;2023-02-16T01:03:21;11.43;;;5.00;;
30681;SDS011;17439;48.092;11.842;2023-02-16T01:05:50;9.38;;;4.35;;
30681;SDS011;17439;48.092;11.842;2023-02-16T01:08:17;8.73;;;4.80;;
30681;SDS011;17439;48.092;11.842;2023-02-16T01:10:43;12.23;;;5.22;;
30681;SDS011;17439;48.092;11.842;2023-02-16T01:13:11;10.68;;;5.93;;
30681;SDS011;17439;48.092;11.842;2023-02-16T01:15:38;11.77;;;5.07;;
30681;SDS011;17439;48.092;11.842;2023-02-16T01:18:06;12.07;;;5.05;;
30681;SDS011;17439;48.092;11.842;2023-02-16T01:20:33;8.47;;;4.27;;
30681;SDS011;17439;48.092;11.842;2023-02-16T01:23:00;11.30;;;5.53;;
30681;SDS011;17439;48.092;11.842;2023-02-16T01:25:27;11.20;;;4.90;;
30681;SDS011;17439;48.092;11.842;2023-02-16T01:27:53;14.10;;;4.95;;
30681;SDS011;17439;48.092;11.842;2023-02-16T01:30:20;9.20;;;4.38;;
30681;SDS011;17439;48.092;11.842;2023-02-16T01:32:49;9.90;;;4.72;;
30681;SDS011;17439;48.092;11.842;2023-02-16T01:35:23;13.95;;;5.70;;
30681;SDS011;17439;48.092;11.842;2023-02-16T01:37:53;15.52;;;6.80;;
30681;SDS011;17439;48.092;11.842;2023-02-16T01:42:50;12.85;;;5.70;;
30681;SDS011;17439;48.092;11.842;2023-02-16T01:45:31;9.02;;;4.97;;
30681;SDS011;17439;48.092;11.842;2023-02-16T01:48:04;12.63;;;4.78;;
30681;SDS011;17439;48.092;11.842;2023-02-16T01:50:41;9.82;;;4.80;;
30681;SDS011;17439;48.092;11.842;2023-02-16T01:53:33;12.43;;;5.95;;
30681;SDS011;17439;48.092;11.842;2023-02-16T01:56:02;11.60;;;5.55;;
30681;SDS011;17439;48.092;11.842;2023-02-16T02:04:01;11.48;;;5.10;;
30681;SDS011;17439;48.092;11.842;2023-02-16T02:06:39;14.68;;;6.43;;
30681;SDS011;17439;48.092;11.842;2023-02-16T02:12:12;11.98;;;6.22;;
30681;SDS011;17439;48.092;11.842;2023-02-16T02:14:49;11.90;;;5.05;;
30681;SDS011;17439;48.092;11.842;2023-02-16T02:17:17;9.93;;;5.00;;
30681;SDS011;17439;48.092;11.842;2023-02-16T02:19:49;8.93;;;4.95;;
30681;SDS011;17439;48.092;11.842;2023-02-16T02:30:28;8.20;;;4.57;;
30681;SDS011;17439;48.092;11.842;2023-02-16T02:35:44;6.80;;;3.95;;
30681;SDS011;17439;48.092;11.842;2023-02-16T02:38:32;9.20;;;4.65;;
30681;SDS011;17439;48.092;11.842;2023-02-16T02:44:01;8.00;;;4.03;;
30681;SDS011;17439;48.092;11.842;2023-02-16T02:46:32;9.02;;;5.25;;
30681;SDS011;17439;48.092;11.842;2023-02-16T02:49:02;10.13;;;4.55;;
30681;SDS011;17439;48.092;11.842;2023-02-16T02:51:29;8.40;;;4.45;;
30681;SDS011;17439;48.092;11.842;2023-02-16T02:54:05;11.38;;;5.15;;
30681;SDS011;17439;48.092;11.842;2023-02-16T02:56:32;8.32;;;4.30;;
30681;SDS011;17439;48.092;11.842;2023-02-16T02:59:00;9.10;;;4.50;;
30681;SDS011;17439;48.092;11.842;2023-02-16T03:01:32;11.18;;;4.70;;
30681;SDS011;17439;48.092;11.842;2023-02-16T03:04:01;10.93;;;4.88;;
30681;SDS011;17439;48.092;11.842;2023-02-16T03:06:31;8.30;;;3.75;;
30681;SDS011;17439;48.092;11.842;2023-02-16T03:09:06;9.38;;;4.28;;
30681;SDS011;17439;48.092;11.842;2023-02-16T03:11:37;7.82;;;3.70;;
30681;SDS011;17439;48.092;11.842;2023-02-16T03:16:47;11.05;;;4.55;;
30681;SDS011;17439;48.092;11.842;2023-02-16T03:19:18;8.68;;;3.50;;
30681;SDS011;17439;48.092;11.842;2023-02-16T03:21:45;9.52;;;4.63;;
30681;SDS011;17439;48.092;11.842;2023-02-16T03:24:15;8.50;;;4.43;;
30681;SDS011;17439;48.092;11.842;2023-02-16T03:26:48;9.07;;;4.50;;
30681;SDS011;17439;48.092;11.842;2023-02-16T03:29:15;9.13;;;4.57;;
30681;SDS011;17439;48.092;11.842;2023-02-16T03:31:43;7.22;;;4.00;;
30681;SDS011;17439;48.092;11.842;2023-02-16T03:34:11;8.82;;;4.47;;
30681;SDS011;17439;48.092;11.842;2023-02-16T03:36:40;10.25;;;4.18;;
30681;SDS011;17439;48.092;11.842;2023-02-16T03:39:09;9.98;;;4.22;;
30681;SDS011;17439;48.092;11.842;2023-02-16T03:44:05;10.10;;;3.80;;
30681;SDS011;17439;48.092;11.842;2023-02-16T03:46:32;9.68;;;4.40;;
30681;SDS011;17439;48.092;11.842;2023-02-16T03:48:59;6.72;;;3.50;;
30681;SDS011;17439;48.092;11.842;2023-02-16T03:51:25;11.65;;;4.72;;
30681;SDS011;17439;48.092;11.842;2023-02-16T03:53:52;7.55;;;3.38;;
30681;SDS011;17439;48.092;11.842;2023-02-16T03:56:19;7.90;;;3.63;;
30681;SDS011;17439;48.092;11.842;2023-02-16T03:58:45;7.15;;;3.75;;
30681;SDS011;17439;48.092;11.842;2023-02-16T04:01:12;6.28;;;3.35;;
30681;SDS011;17439;48.092;11.842;2023-02-16T04:03:38;8.75;;;4.10;;
30681;SDS011;17439;48.092;11.842;2023-02-16T04:06:05;7.97;;;4.15;;
30681;SDS011;17439;48.092;11.842;2023-02-16T04:08:32;9.38;;;4.50;;
30681;SDS011;17439;48.092;11.842;2023-02-16T04:10:58;6.40;;;3.13;;
30681;SDS011;17439;48.092;11.842;2023-02-16T04:13:25;6.60;;;2.95;;
30681;SDS011;17439;48.092;11.842;2023-02-16T04:15:52;7.50;;;3.70;;
30681;SDS011;17439;48.092;11.842;2023-02-16T04:18:19;11.25;;;3.85;;
30681;SDS011;17439;48.092;11.842;2023-02-16T04:20:45;8.32;;;3.72;;
30681;SDS011;17439;48.092;11.842;2023-02-16T04:23:12;6.53;;;3.83;;
30681;SDS011;17439;48.092;11.842;2023-02-16T04:25:38;10.00;;;3.75;;
30681;SDS011;17439;48.092;11.842;2023-02-16T04:28:05;8.18;;;4.13;;
30681;SDS011;17439;48.092;11.842;2023-02-16T04:30:32;6.95;;;3.67;;
30681;SDS011;17439;48.092;11.842;2023-02-16T04:32:58;13.57;;;4.30;;
30681;SDS011;17439;48.092;11.842;2023-02-16T04:35:25;8.02;;;3.75;;
30681;SDS011;17439;48.092;11.842;2023-02-16T04:37:52;8.77;;;4.47;;
30681;SDS011;17439;48.092;11.842;2023-02-16T04:40:19;6.93;;;3.30;;
30681;SDS011;17439;48.092;11.842;2023-02-16T04:42:45;9.02;;;3.67;;
30681;SDS011;17439;48.092;11.842;2023-02-16T04:45:12;9.20;;;3.50;;
30681;SDS011;17439;48.092;11.842;2023-02-16T04:47:40;6.80;;;3.45;;
30681;SDS011;17439;48.092;11.842;2023-02-16T04:50:07;6.68;;;3.33;;
30681;SDS011;17439;48.092;11.842;2023-02-16T04:55:01;8.13;;;3.72;;
30681;SDS011;17439;48.092;11.842;2023-02-16T04:57:28;8.82;;;3.60;;
30681;SDS011;17439;48.092;11.842;2023-02-16T04:59:55;7.22;;;4.13;;
30681;SDS011;17439;48.092;11.842;2023-02-16T05:02:21;9.00;;;3.85;;
30681;SDS011;17439;48.092;11.842;2023-02-16T05:04:48;7.95;;;4.43;;
30681;SDS011;17439;48.092;11.842;2023-02-16T05:07:14;9.32;;;4.25;;
30681;SDS011;17439;48.092;11.842;2023-02-16T05:09:42;8.32;;;3.35;;
30681;SDS011;17439;48.092;11.842;2023-02-16T05:12:09;9.98;;;4.35;;
30681;SDS011;17439;48.092;11.842;2023-02-16T05:14:36;7.60;;;3.63;;
30681;SDS011;17439;48.092;11.842;2023-02-16T05:17:03;9.25;;;3.90;;
30681;SDS011;17439;48.092;11.842;2023-02-16T05:19:29;6.30;;;3.60;;
30681;SDS011;17439;48.092;11.842;2023-02-16T05:21:56;7.47;;;4.13;;
30681;SDS011;17439;48.092;11.842;2023-02-16T05:24:23;6.78;;;3.67;;
30681;SDS011;17439;48.092;11.842;2023-02-16T05:26:52;9.02;;;4.72;;
30681;SDS011;17439;48.092;11.842;2023-02-16T05:29:19;9.70;;;4.07;;
30681;SDS011;17439;48.092;11.842;2023-02-16T05:31:45;11.38;;;3.88;;
30681;SDS011;17439;48.092;11.842;2023-02-16T05:34:12;10.32;;;4.38;;
30681;SDS011;17439;48.092;11.842;2023-02-16T05:36:39;9.85;;;4.82;;
30681;SDS011;17439;48.092;11.842;2023-02-16T05:39:05;9.48;;;3.97;;
30681;SDS011;17439;48.092;11.842;2023-02-16T05:41:32;14.52;;;4.80;;
30681;SDS011;17439;48.092;11.842;2023-02-16T05:43:59;10.23;;;4.60;;
30681;SDS011;17439;48.092;11.842;2023-02-16T05:48:54;6.95;;;3.83;;
30681;SDS011;17439;48.092;11.842;2023-02-16T05:51:20;8.13;;;3.90;;
30681;SDS011;17439;48.092;11.842;2023-02-16T05:53:47;9.13;;;4.30;;
30681;SDS011;17439;48.092;11.842;2023-02-16T05:56:14;12.60;;;4.38;;
30681;SDS011;17439;48.092;11.842;2023-02-16T05:58:42;6.55;;;3.47;;
30681;SDS011;17439;48.092;11.842;2023-02-16T06:01:08;6.45;;;3.03;;
30681;SDS011;17439;48.092;11.842;2023-02-16T06:03:35;6.03;;;3.03;;
30681;SDS011;17439;48.092;11.842;2023-02-16T06:06:02;8.07;;;3.85;;
30681;SDS011;17439;48.092;11.842;2023-02-16T06:08:31;9.00;;;4.30;;
30681;SDS011;17439;48.092;11.842;2023-02-16T06:10:58;9.07;;;4.03;;
30681;SDS011;17439;48.092;11.842;2023-02-16T06:13:25;6.90;;;2.53;;
30681;SDS011;17439;48.092;11.842;2023-02-16T06:15:53;5.25;;;2.65;;
30681;SDS011;17439;48.092;11.842;2023-02-16T06:18:22;6.80;;;3.15;;
30681;SDS011;17439;48.092;11.842;2023-02-16T06:20:50;5.97;;;3.03;;
30681;SDS011;17439;48.092;11.842;2023-02-16T06:23:17;7.35;;;3.33;;
30681;SDS011;17439;48.092;11.842;2023-02-16T06:25:44;7.03;;;3.47;;
30681;SDS011;17439;48.092;11.842;2023-02-16T06:28:15;7.78;;;3.85;;
30681;SDS011;17439;48.092;11.842;2023-02-16T06:30:41;8.18;;;3.33;;
30681;SDS011;17439;48.092;11.842;2023-02-16T06:33:08;5.18;;;2.70;;
30681;SDS011;17439;48.092;11.842;2023-02-16T06:35:35;4.80;;;2.20;;
30681;SDS011;17439;48.092;11.842;2023-02-16T06:38:01;5.25;;;2.50;;
30681;SDS011;17439;48.092;11.842;2023-02-16T06:40:28;6.32;;;2.63;;
30681;SDS011;17439;48.092;11.842;2023-02-16T06:42:54;6.05;;;2.10;;
30681;SDS011;17439;48.092;11.842;2023-02-16T06:45:21;9.05;;;2.75;;
30681;SDS011;17439;48.092;11.842;2023-02-16T06:47:48;7.75;;;2.75;;
30681;SDS011;17439;48.092;11.842;2023-02-16T06:50:14;5.18;;;2.85;;
30681;SDS011;17439;48.092;11.842;2023-02-16T06:52:41;5.70;;;2.97;;
30681;SDS011;17439;48.092;11.842;2023-02-16T06:55:07;4.68;;;2.65;;
30681;SDS011;17439;48.092;11.842;2023-02-16T06:57:34;6.00;;;2.67;;
30681;SDS011;17439;48.092;11.842;2023-02-16T07:00:00;5.40;;;2.22;;
30681;SDS011;17439;48.092;11.842;2023-02-16T07:02:28;4.93;;;2.45;;
30681;SDS011;17439;48.092;11.842;2023-02-16T07:04:54;6.95;;;2.70;;
30681;SDS011;17439;48.092;11.842;2023-02-16T07:07:21;9.18;;;3.58;;
30681;SDS011;17439;48.092;11.842;2023-02-16T07:09:49;9.93;;;3.97;;
30681;SDS011;17439;48.092;11.842;2023-02-16T07:12:15;6.95;;;2.85;;
30681;SDS011;17439;48.092;11.842;2023-02-16T07:14:42;7.32;;;3.60;;
30681;SDS011;17439;48.092;11.842;2023-02-16T07:17:09;7.23;;;3.70;;
30681;SDS011;17439;48.092;11.842;2023-02-16T07:19:36;9.35;;;3.65;;
30681;SDS011;17439;48.092;11.842;2023-02-16T07:22:03;8.30;;;3.45;;
30681;SDS011;17439;48.092;11.842;2023-02-16T07:24:30;9.15;;;3.90;;
30681;SDS011;17439;48.092;11.842;2023-02-16T07:26:59;7.70;;;3.15;;
30681;SDS011;17439;48.092;11.842;2023-02-16T07:29:26;7.65;;;2.95;;
30681;SDS011;17439;48.092;11.842;2023-02-16T07:31:53;6.78;;;3.30;;
30681;SDS011;17439;48.092;11.842;2023-02-16T07:34:19;8.88;;;4.07;;
30681;SDS011;17439;48.092;11.842;2023-02-16T07:36:47;7.57;;;3.15;;
30681;SDS011;17439;48.092;11.842;2023-02-16T07:39:14;11.10;;;4.57;;
30681;SDS011;17439;48.092;11.842;2023-02-16T07:41:40;10.18;;;4.80;;
30681;SDS011;17439;48.092;11.842;2023-02-16T07:44:07;8.65;;;3.95;;
30681;SDS011;17439;48.092;11.842;2023-02-16T07:46:34;7.82;;;4.40;;
30681;SDS011;17439;48.092;11.842;2023-02-16T07:49:00;6.93;;;2.97;;
30681;SDS011;17439;48.092;11.842;2023-02-16T07:51:28;8.90;;;3.97;;
30681;SDS011;17439;48.092;11.842;2023-02-16T07:53:57;7.82;;;3.67;;
30681;SDS011;17439;48.092;11.842;2023-02-16T07:56:26;6.05;;;3.30;;
30681;SDS011;17439;48.092;11.842;2023-02-16T07:58:54;7.03;;;3.13;;
30681;SDS011;17439;48.092;11.842;2023-02-16T08:01:21;7.15;;;3.45;;
30681;SDS011;17439;48.092;11.842;2023-02-16T08:03:48;9.43;;;3.72;;
30681;SDS011;17439;48.092;11.842;2023-02-16T08:06:15;7.93;;;3.42;;
30681;SDS011;17439;48.092;11.842;2023-02-16T08:08:42;5.78;;;3.08;;
30681;SDS011;17439;48.092;11.842;2023-02-16T08:11:10;5.82;;;2.85;;
30681;SDS011;17439;48.092;11.842;2023-02-16T08:13:38;6.57;;;2.92;;
30681;SDS011;17439;48.092;11.842;2023-02-16T08:16:08;7.70;;;2.60;;
30681;SDS011;17439;48.092;11.842;2023-02-16T08:18:42;7.72;;;3.53;;
30681;SDS011;17439;48.092;11.842;2023-02-16T08:21:16;7.13;;;2.97;;
30681;SDS011;17439;48.092;11.842;2023-02-16T08:23:45;7.07;;;3.67;;
30681;SDS011;17439;48.092;11.842;2023-02-16T08:26:17;8.80;;;3.10;;
30681;SDS011;17439;48.092;11.842;2023-02-16T08:31:13;7.07;;;3.67;;
30681;SDS011;17439;48.092;11.842;2023-02-16T08:33:40;6.40;;;3.10;;
30681;SDS011;17439;48.092;11.842;2023-02-16T08:36:14;8.30;;;4.13;;
30681;SDS011;17439;48.092;11.842;2023-02-16T08:38:49;8.82;;;3.47;;
30681;SDS011;17439;48.092;11.842;2023-02-16T08:41:17;8.40;;;3.93;;
30681;SDS011;17439;48.092;11.842;2023-02-16T08:46:11;7.57;;;3.33;;
30681;SDS011;17439;48.092;11.842;2023-02-16T08:48:38;8.43;;;3.35;;
30681;SDS011;17439;48.092;11.842;2023-02-16T08:51:05;8.77;;;3.40;;
30681;SDS011;17439;48.092;11.842;2023-02-16T08:53:32;8.63;;;3.65;;
30681;SDS011;17439;48.092;11.842;2023-02-16T08:56:02;7.15;;;3.45;;
30681;SDS011;17439;48.092;11.842;2023-02-16T08:58:30;7.05;;;3.45;;
30681;SDS011;17439;48.092;11.842;2023-02-16T09:00:56;9.02;;;4.35;;
30681;SDS011;17439;48.092;11.842;2023-02-16T09:03:23;8.25;;;3.05;;
30681;SDS011;17439;48.092;11.842;2023-02-16T09:05:51;9.63;;;3.60;;
30681;SDS011;17439;48.092;11.842;2023-02-16T09:08:18;10.93;;;3.33;;
30681;SDS011;17439;48.092;11.842;2023-02-16T09:10:47;7.15;;;3.08;;
30681;SDS011;17439;48.092;11.842;2023-02-16T09:13:14;8.05;;;3.42;;
30681;SDS011;17439;48.092;11.842;2023-02-16T09:15:41;10.82;;;4.13;;
30681;SDS011;17439;48.092;11.842;2023-02-16T09:18:08;8.82;;;3.60;;
30681;SDS011;17439;48.092;11.842;2023-02-16T09:20:39;7.70;;;3.47;;
30681;SDS011;17439;48.092;11.842;2023-02-16T09:23:11;11.43;;;3.75;;
30681;SDS011;17439;48.092;11.842;2023-02-16T09:25:38;12.77;;;3.80;;
30681;SDS011;17439;48.092;11.842;2023-02-16T09:28:06;7.25;;;3.47;;
30681;SDS011;17439;48.092;11.842;2023-02-16T09:30:32;9.88;;;3.95;;
30681;SDS011;17439;48.092;11.842;2023-02-16T09:32:59;13.80;;;4.25;;
30681;SDS011;17439;48.092;11.842;2023-02-16T09:35:26;10.00;;;3.73;;
30681;SDS011;17439;48.092;11.842;2023-02-16T09:37:53;11.82;;;3.65;;
30681;SDS011;17439;48.092;11.842;2023-02-16T09:40:19;8.68;;;3.80;;
30681;SDS011;17439;48.092;11.842;2023-02-16T09:45:28;10.52;;;4.80;;
30681;SDS011;17439;48.092;11.842;2023-02-16T09:47:57;8.00;;;3.63;;
30681;SDS011;17439;48.092;11.842;2023-02-16T09:50:25;11.95;;;4.50;;
30681;SDS011;17439;48.092;11.842;2023-02-16T09:53:19;8.95;;;3.47;;
30681;SDS011;17439;48.092;11.842;2023-02-16T09:55:57;16.48;;;6.18;;
30681;SDS011;17439;48.092;11.842;2023-02-16T09:58:38;10.85;;;4.13;;
30681;SDS011;17439;48.092;11.842;2023-02-16T10:01:18;11.88;;;3.90;;
30681;SDS011;17439;48.092;11.842;2023-02-16T10:03:54;7.43;;;3.75;;
30681;SDS011;17439;48.092;11.842;2023-02-16T10:11:54;14.02;;;4.90;;
30681;SDS011;17439;48.092;11.842;2023-02-16T10:14:30;10.68;;;4.75;;
30681;SDS011;17439;48.092;11.842;2023-02-16T10:19:46;11.75;;;5.32;;
30681;SDS011;17439;48.092;11.842;2023-02-16T10:22:29;9.48;;;5.03;;
30681;SDS011;17439;48.092;11.842;2023-02-16T10:25:01;11.55;;;4.55;;
30681;SDS011;17439;48.092;11.842;2023-02-16T10:27:33;10.75;;;5.20;;
30681;SDS011;17439;48.092;11.842;2023-02-16T10:30:10;10.98;;;4.85;;
30681;SDS011;17439;48.092;11.842;2023-02-16T10:32:49;13.20;;;5.47;;
30681;SDS011;17439;48.092;11.842;2023-02-16T10:35:24;13.20;;;5.00;;
30681;SDS011;17439;48.092;11.842;2023-02-16T10:38:19;12.48;;;5.13;;
30681;SDS011;17439;48.092;11.842;2023-02-16T10:41:26;12.35;;;4.93;;
30681;SDS011;17439;48.092;11.842;2023-02-16T10:46:54;10.27;;;5.38;;
30681;SDS011;17439;48.092;11.842;2023-02-16T10:49:25;15.75;;;5.55;;
30681;SDS011;17439;48.092;11.842;2023-02-16T10:51:54;9.88;;;4.88;;
30681;SDS011;17439;48.092;11.842;2023-02-16T10:56:53;13.45;;;4.50;;
30681;SDS011;17439;48.092;11.842;2023-02-16T10:59:23;11.27;;;4.25;;
30681;SDS011;17439;48.092;11.842;2023-02-16T11:01:52;11.48;;;4.88;;
30681;SDS011;17439;48.092;11.842;2023-02-16T11:09:31;17.52;;;5.47;;
30681;SDS011;17439;48.092;11.842;2023-02-16T11:11:58;8.80;;;4.20;;
30681;SDS011;17439;48.092;11.842;2023-02-16T11:14:26;14.82;;;5.82;;
30681;SDS011;17439;48.092;11.842;2023-02-16T11:17:01;12.00;;;4.75;;
30681;SDS011;17439;48.092;11.842;2023-02-16T11:19:30;13.00;;;3.95;;
30681;SDS011;17439;48.092;11.842;2023-02-16T11:21:56;14.15;;;4.90;;
30681;SDS011;17439;48.092;11.842;2023-02-16T11:24:24;6.15;;;4.20;;
30681;SDS011;17439;48.092;11.842;2023-02-16T11:27:01;8.93;;;4.47;;
30681;SDS011;17439;48.092;11.842;2023-02-16T11:29:39;15.90;;;7.10;;
30681;SDS011;17439;48.092;11.842;2023-02-16T11:32:07;15.82;;;6.47;;
30681;SDS011;17439;48.092;11.842;2023-02-16T11:39:38;8.07;;;3.67;;
30681;SDS011;17439;48.092;11.842;2023-02-16T11:42:07;9.10;;;4.20;;
30681;SDS011;17439;48.092;11.842;2023-02-16T11:44:49;7.28;;;3.80;;
30681;SDS011;17439;48.092;11.842;2023-02-16T11:49:48;11.80;;;3.92;;
30681;SDS011;17439;48.092;11.842;2023-02-16T11:52:29;9.68;;;4.60;;
30681;SDS011;17439;48.092;11.842;2023-02-16T11:54:58;11.60;;;5.18;;
30681;SDS011;17439;48.092;11.842;2023-02-16T11:57:27;8.13;;;3.50;;
30681;SDS011;17439;48.092;11.842;2023-02-16T11:59:55;9.75;;;4.28;;
30681;SDS011;17439;48.092;11.842;2023-02-16T12:05:13;12.48;;;4.55;;
30681;SDS011;17439;48.092;11.842;2023-02-16T12:08:02;14.25;;;4.97;;
30681;SDS011;17439;48.092;11.842;2023-02-16T12:13:19;11.05;;;4.53;;
30681;SDS011;17439;48.092;11.842;2023-02-16T12:26:51;9.27;;;4.47;;
30681;SDS011;17439;48.092;11.842;2023-02-16T12:38:05;12.48;;;5.00;;
30681;SDS011;17439;48.092;11.842;2023-02-16T12:43:32;6.63;;;3.63;;
30681;SDS011;17439;48.092;11.842;2023-02-16T12:46:05;10.10;;;4.03;;
30681;SDS011;17439;48.092;11.842;2023-02-16T12:48:59;11.10;;;3.83;;
30681;SDS011;17439;48.092;11.842;2023-02-16T12:51:34;8.32;;;4.40;;
30681;SDS011;17439;48.092;11.842;2023-02-16T12:54:16;10.73;;;3.65;;
30681;SDS011;17439;48.092;11.842;2023-02-16T12:57:00;6.97;;;3.78;;
30681;SDS011;17439;48.092;11.842;2023-02-16T13:02:30;6.88;;;2.95;;
30681;SDS011;17439;48.092;11.842;2023-02-16T13:05:03;13.07;;;3.90;;
30681;SDS011;17439;48.092;11.842;2023-02-16T13:07:35;7.97;;;4.03;;
30681;SDS011;17439;48.092;11.842;2023-02-16T13:10:18;11.70;;;4.63;;
30681;SDS011;17439;48.092;11.842;2023-02-16T13:13:04;15.32;;;4.22;;
30681;SDS011;17439;48.092;11.842;2023-02-16T13:15:43;7.70;;;3.80;;
30681;SDS011;17439;48.092;11.842;2023-02-16T13:18:19;8.88;;;3.38;;
30681;SDS011;17439;48.092;11.842;2023-02-16T13:20:51;8.00;;;4.18;;
30681;SDS011;17439;48.092;11.842;2023-02-16T13:45:01;8.25;;;3.47;;
30681;SDS011;17439;48.092;11.842;2023-02-16T13:47:56;7.10;;;2.92;;
30681;SDS011;17439;48.092;11.842;2023-02-16T13:50:25;5.35;;;3.00;;
30681;SDS011;17439;48.092;11.842;2023-02-16T13:53:07;11.73;;;4.25;;
30681;SDS011;17439;48.092;11.842;2023-02-16T13:55:37;7.45;;;2.70;;
30681;SDS011;17439;48.092;11.842;2023-02-16T14:05:44;8.02;;;3.08;;
30681;SDS011;17439;48.092;11.842;2023-02-16T14:13:16;13.52;;;4.03;;
30681;SDS011;17439;48.092;11.842;2023-02-16T14:15:54;7.65;;;3.45;;
30681;SDS011;17439;48.092;11.842;2023-02-16T14:18:40;7.30;;;3.65;;
30681;SDS011;17439;48.092;11.842;2023-02-16T14:21:17;7.95;;;2.83;;
30681;SDS011;17439;48.092;11.842;2023-02-16T14:23:53;9.27;;;3.65;;
30681;SDS011;17439;48.092;11.842;2023-02-16T14:26:21;7.97;;;3.55;;
30681;SDS011;17439;48.092;11.842;2023-02-16T14:31:51;7.90;;;2.83;;
30681;SDS011;17439;48.092;11.842;2023-02-16T14:34:25;8.70;;;3.58;;
30681;SDS011;17439;48.092;11.842;2023-02-16T14:37:22;8.90;;;3.08;;
30681;SDS011;17439;48.092;11.842;2023-02-16T14:39:54;9.35;;;4.05;;
30681;SDS011;17439;48.092;11.842;2023-02-16T14:42:35;7.00;;;3.15;;
30681;SDS011;17439;48.092;11.842;2023-02-16T14:45:06;7.32;;;3.72;;
30681;SDS011;17439;48.092;11.842;2023-02-16T14:50:25;8.48;;;3.70;;
30681;SDS011;17439;48.092;11.842;2023-02-16T14:56:04;8.77;;;3.47;;
30681;SDS011;17439;48.092;11.842;2023-02-16T15:01:53;7.95;;;2.35;;
30681;SDS011;17439;48.092;11.842;2023-02-16T15:04:27;7.22;;;2.92;;
30681;SDS011;17439;48.092;11.842;2023-02-16T15:06:53;4.93;;;3.08;;
30681;SDS011;17439;48.092;11.842;2023-02-16T15:09:28;6.13;;;3.80;;
30681;SDS011;17439;48.092;11.842;2023-02-16T15:11:58;6.85;;;2.95;;
30681;SDS011;17439;48.092;11.842;2023-02-16T15:14:29;9.20;;;2.55;;
30681;SDS011;17439;48.092;11.842;2023-02-16T15:16:58;8.02;;;2.72;;
30681;SDS011;17439;48.092;11.842;2023-02-16T15:19:26;5.97;;;2.83;;
30681;SDS011;17439;48.092;11.842;2023-02-16T15:22:08;5.32;;;2.80;;
30681;SDS011;17439;48.092;11.842;2023-02-16T15:24:43;7.00;;;1.98;;
30681;SDS011;17439;48.092;11.842;2023-02-16T15:27:19;6.15;;;2.47;;
30681;SDS011;17439;48.092;11.842;2023-02-16T15:30:00;12.95;;;2.38;;
30681;SDS011;17439;48.092;11.842;2023-02-16T15:32:48;6.72;;;2.45;;
30681;SDS011;17439;48.092;11.842;2023-02-16T15:35:21;8.90;;;2.78;;
30681;SDS011;17439;48.092;11.842;2023-02-16T15:37:58;10.00;;;2.38;;
30681;SDS011;17439;48.092;11.842;2023-02-16T15:40:26;4.82;;;2.28;;
30681;SDS011;17439;48.092;11.842;2023-02-16T15:42:54;5.93;;;1.85;;
30681;SDS011;17439;48.092;11.842;2023-02-16T15:45:26;7.45;;;2.63;;
30681;SDS011;17439;48.092;11.842;2023-02-16T15:48:19;5.70;;;3.03;;
30681;SDS011;17439;48.092;11.842;2023-02-16T15:50:48;6.03;;;2.55;;
30681;SDS011;17439;48.092;11.842;2023-02-16T15:53:21;8.77;;;3.00;;
30681;SDS011;17439;48.092;11.842;2023-02-16T15:55:50;4.97;;;2.22;;
30681;SDS011;17439;48.092;11.842;2023-02-16T15:58:17;7.32;;;2.47;;
30681;SDS011;17439;48.092;11.842;2023-02-16T16:00:43;8.38;;;2.38;;
30681;SDS011;17439;48.092;11.842;2023-02-16T16:03:13;6.50;;;2.72;;
30681;SDS011;17439;48.092;11.842;2023-02-16T16:05:42;4.85;;;2.65;;
30681;SDS011;17439;48.092;11.842;2023-02-16T16:08:21;3.63;;;1.60;;
30681;SDS011;17439;48.092;11.842;2023-02-16T16:10:51;5.95;;;2.22;;
30681;SDS011;17439;48.092;11.842;2023-02-16T16:13:20;4.53;;;1.90;;
30681;SDS011;17439;48.092;11.842;2023-02-16T16:15:50;6.43;;;2.33;;
30681;SDS011;17439;48.092;11.842;2023-02-16T16:18:39;5.65;;;1.95;;
30681;SDS011;17439;48.092;11.842;2023-02-16T16:21:13;9.43;;;2.22;;
30681;SDS011;17439;48.092;11.842;2023-02-16T16:23:55;7.03;;;1.85;;
30681;SDS011;17439;48.092;11.842;2023-02-16T16:26:55;3.70;;;1.80;;
30681;SDS011;17439;48.092;11.842;2023-02-16T16:30:06;4.63;;;1.30;;
30681;SDS011;17439;48.092;11.842;2023-02-16T16:32:17;3.30;;;1.65;;
30681;SDS011;17439;48.092;11.842;2023-02-16T16:34:49;3.85;;;1.55;;
30681;SDS011;17439;48.092;11.842;2023-02-16T16:40:09;6.13;;;1.90;;
30681;SDS011;17439;48.092;11.842;2023-02-16T16:45:36;7.53;;;1.90;;
30681;SDS011;17439;48.092;11.842;2023-02-16T16:48:13;3.47;;;1.45;;
30681;SDS011;17439;48.092;11.842;2023-02-16T16:50:43;3.40;;;1.30;;
30681;SDS011;17439;48.092;11.842;2023-02-16T16:55:53;3.33;;;1.27;;
30681;SDS011;17439;48.092;11.842;2023-02-16T16:58:20;4.57;;;1.50;;
30681;SDS011;17439;48.092;11.842;2023-02-16T17:00:46;6.65;;;1.80;;
30681;SDS011;17439;48.092;11.842;2023-02-16T17:03:14;3.70;;;1.63;;
30681;SDS011;17439;48.092;11.842;2023-02-16T17:05:43;7.05;;;1.35;;
30681;SDS011;17439;48.092;11.842;2023-02-16T17:08:10;3.17;;;1.35;;
30681;SDS011;17439;48.092;11.842;2023-02-16T17:10:37;4.00;;;1.85;;
30681;SDS011;17439;48.092;11.842;2023-02-16T17:13:06;5.68;;;1.75;;
30681;SDS011;17439;48.092;11.842;2023-02-16T17:16:35;6.25;;;2.30;;
30681;SDS011;17439;48.092;11.842;2023-02-16T17:18:49;5.90;;;1.60;;
30681;SDS011;17439;48.092;11.842;2023-02-16T17:21:16;4.25;;;1.85;;
30681;SDS011;17439;48.092;11.842;2023-02-16T17:23:42;10.05;;;2.08;;
30681;SDS011;17439;48.092;11.842;2023-02-16T17:26:18;8.82;;;1.90;;
30681;SDS011;17439;48.092;11.842;2023-02-16T17:28:44;7.95;;;2.45;;